Time;durP1;ratioP1;P1;durP2;ratioP2;P2;SDS_P1;SDS_P2;PMS_P1;PMS_P2;Temp;Humidity;BMP_temperature;BMP_pressure;BME280_temperature;BME280_humidity;BME280_pressure;Samples;Min_cycle;Max_cycle;Signal;HPM_P1;HPM_P2
2022/05/26 00:02:19;;;;;;;11.95;4.13;;;;;;;;;;4980009;28;20027;-75
2022/05/26 00:04:45;;;;;;;11.52;4.53;;;;;;;;;;4996545;28;20404;-76
2022/05/26 00:07:11;;;;;;;15.80;4.60;;;;;;;;;;4979076;28;20037;-76
2022/05/26 00:09:37;;;;;;;10.80;4.18;;;;;;;;;;4996636;28;20041;-76
2022/05/26 00:12:04;;;;;;;16.25;4.70;;;;;;;;;;4995788;28;20514;-75
2022/05/26 00:14:30;;;;;;;10.02;4.95;;;;;;;;;;4995775;28;20038;-76
2022/05/26 00:16:56;;;;;;;10.48;4.72;;;;;;;;;;4995661;28;20535;-76
2022/05/26 00:19:22;;;;;;;19.05;5.13;;;;;;;;;;4995869;28;20042;-75
2022/05/26 00:21:49;;;;;;;11.38;4.90;;;;;;;;;;4995798;28;20026;-75
2022/05/26 00:24:17;;;;;;;14.77;5.28;;;;;;;;;;4995667;28;20044;-76
2022/05/26 00:26:43;;;;;;;13.15;4.72;;;;;;;;;;4995188;28;20032;-76
2022/05/26 00:29:09;;;;;;;10.85;4.55;;;;;;;;;;4995601;28;20455;-75
2022/05/26 00:31:35;;;;;;;14.73;4.90;;;;;;;;;;4978212;28;20403;-75
2022/05/26 00:34:00;;;;;;;13.68;4.60;;;;;;;;;;5003445;28;20030;-76
2022/05/26 00:36:41;;;;;;;9.05;4.80;;;;;;;;;;4994907;28;20046;-75
2022/05/26 00:39:06;;;;;;;14.20;4.90;;;;;;;;;;4995922;28;20028;-77
2022/05/26 00:41:33;;;;;;;13.10;4.70;;;;;;;;;;4995481;28;20019;-79
2022/05/26 00:43:59;;;;;;;11.95;4.80;;;;;;;;;;4978348;28;20029;-76
2022/05/26 00:46:43;;;;;;;21.20;5.00;;;;;;;;;;4998511;28;20038;-76
2022/05/26 00:49:12;;;;;;;11.13;4.60;;;;;;;;;;5016905;28;20026;-77
2022/05/26 00:51:38;;;;;;;11.75;4.45;;;;;;;;;;5007662;28;20036;-76
2022/05/26 00:54:07;;;;;;;15.05;5.15;;;;;;;;;;4995197;28;20022;-76
2022/05/26 00:56:41;;;;;;;12.05;4.50;;;;;;;;;;4994751;28;20053;-76
2022/05/26 00:59:10;;;;;;;12.68;4.85;;;;;;;;;;4977693;28;20030;-76
2022/05/26 01:01:36;;;;;;;10.55;4.60;;;;;;;;;;4995527;28;20022;-77
2022/05/26 01:04:06;;;;;;;20.38;4.53;;;;;;;;;;4995816;28;20023;-75
2022/05/26 01:06:36;;;;;;;14.32;4.50;;;;;;;;;;5007005;28;20042;-76
2022/05/26 01:09:03;;;;;;;12.55;5.13;;;;;;;;;;5004360;28;20026;-76
2022/05/26 01:11:35;;;;;;;13.55;4.97;;;;;;;;;;5004817;28;20117;-76
2022/05/26 01:14:18;;;;;;;10.50;5.18;;;;;;;;;;4999339;28;20054;-76
2022/05/26 01:17:03;;;;;;;13.25;5.30;;;;;;;;;;5004597;28;20046;-75
2022/05/26 01:19:32;;;;;;;11.50;5.43;;;;;;;;;;5002239;28;20081;-77
2022/05/26 01:22:16;;;;;;;12.13;5.22;;;;;;;;;;4994139;28;20022;-77
2022/05/26 01:25:01;;;;;;;12.50;5.40;;;;;;;;;;4994553;28;20033;-77
2022/05/26 01:27:33;;;;;;;14.52;5.43;;;;;;;;;;4994220;28;20081;-77
2022/05/26 01:30:18;;;;;;;12.30;5.05;;;;;;;;;;4994131;28;20027;-76
2022/05/26 01:33:07;;;;;;;15.38;5.25;;;;;;;;;;4994008;28;20541;-77
2022/05/26 01:35:36;;;;;;;12.23;5.80;;;;;;;;;;4976449;28;20031;-76
2022/05/26 01:38:05;;;;;;;14.27;6.07;;;;;;;;;;4993881;28;20034;-76
2022/05/26 01:40:43;;;;;;;12.13;5.60;;;;;;;;;;4994230;28;20034;-77
2022/05/26 01:43:17;;;;;;;14.13;6.53;;;;;;;;;;4993887;28;20026;-76
2022/05/26 01:45:49;;;;;;;12.80;6.18;;;;;;;;;;4994037;28;20027;-76
2022/05/26 01:48:15;;;;;;;18.10;6.40;;;;;;;;;;4994588;28;20034;-77
2022/05/26 01:50:47;;;;;;;14.32;5.80;;;;;;;;;;4994163;28;20030;-77
2022/05/26 01:53:20;;;;;;;13.27;5.95;;;;;;;;;;4993830;28;20037;-76
2022/05/26 01:55:49;;;;;;;13.52;5.57;;;;;;;;;;4976269;28;20038;-76
2022/05/26 01:58:24;;;;;;;16.35;6.07;;;;;;;;;;4993500;28;20027;-75
2022/05/26 02:00:52;;;;;;;14.63;5.72;;;;;;;;;;5002943;28;20018;-75
2022/05/26 02:03:21;;;;;;;13.48;6.53;;;;;;;;;;5015897;28;20050;-77
2022/05/26 02:06:07;;;;;;;16.10;7.03;;;;;;;;;;4996025;28;20533;-76
2022/05/26 02:08:35;;;;;;;13.85;6.50;;;;;;;;;;4993743;28;20140;-75
2022/05/26 02:11:06;;;;;;;16.15;6.82;;;;;;;;;;4995791;28;20030;-77
2022/05/26 02:13:35;;;;;;;14.23;6.53;;;;;;;;;;4994295;28;20018;-75
2022/05/26 02:16:05;;;;;;;17.45;7.00;;;;;;;;;;4995411;28;20552;-75
2022/05/26 02:18:33;;;;;;;13.65;6.78;;;;;;;;;;4995242;28;20062;-76
2022/05/26 02:21:01;;;;;;;17.02;6.97;;;;;;;;;;4994350;28;20531;-76
2022/05/26 02:23:32;;;;;;;19.33;7.60;;;;;;;;;;4997174;28;20030;-77
2022/05/26 02:25:59;;;;;;;16.23;6.65;;;;;;;;;;4996678;28;20085;-77
2022/05/26 02:28:25;;;;;;;15.52;6.57;;;;;;;;;;4997285;28;20041;-77
2022/05/26 02:30:51;;;;;;;20.35;7.35;;;;;;;;;;5000069;28;20034;-77
2022/05/26 02:33:17;;;;;;;18.88;7.38;;;;;;;;;;5001711;28;20053;-77
2022/05/26 02:35:45;;;;;;;20.10;6.95;;;;;;;;;;5001993;28;20081;-77
2022/05/26 02:38:16;;;;;;;21.13;7.38;;;;;;;;;;4983267;28;20057;-77
2022/05/26 02:40:42;;;;;;;17.92;7.47;;;;;;;;;;4996274;28;20082;-78
2022/05/26 02:43:10;;;;;;;23.15;8.10;;;;;;;;;;4995299;28;20395;-77
2022/05/26 02:45:51;;;;;;;17.17;7.47;;;;;;;;;;4995802;28;20034;-77
2022/05/26 02:48:24;;;;;;;19.23;7.60;;;;;;;;;;4996698;28;20117;-78
2022/05/26 02:51:02;;;;;;;22.40;7.55;;;;;;;;;;4978727;28;20053;-77
2022/05/26 02:53:31;;;;;;;14.25;6.97;;;;;;;;;;5000900;28;20033;-77
2022/05/26 02:56:18;;;;;;;22.25;7.47;;;;;;;;;;5008535;28;20524;-75
2022/05/26 02:59:03;;;;;;;14.00;7.80;;;;;;;;;;5016463;28;20026;-75
2022/05/26 03:01:32;;;;;;;14.07;6.50;;;;;;;;;;5011784;28;20031;-77
2022/05/26 03:04:17;;;;;;;20.33;8.10;;;;;;;;;;4998921;28;20030;-78
2022/05/26 03:06:46;;;;;;;19.20;7.28;;;;;;;;;;5010443;28;20034;-77
2022/05/26 03:09:13;;;;;;;24.33;8.02;;;;;;;;;;5000189;28;20087;-77
2022/05/26 03:11:47;;;;;;;24.10;7.50;;;;;;;;;;5002106;28;20033;-78
2022/05/26 03:14:14;;;;;;;17.75;8.38;;;;;;;;;;5001403;28;20029;-78
2022/05/26 03:16:40;;;;;;;22.15;8.68;;;;;;;;;;5000114;28;20388;-77
2022/05/26 03:19:06;;;;;;;23.08;8.23;;;;;;;;;;5001095;28;20022;-77
2022/05/26 03:21:32;;;;;;;23.67;8.65;;;;;;;;;;5000090;28;20456;-78
2022/05/26 03:23:58;;;;;;;23.88;8.20;;;;;;;;;;5005510;28;20073;-77
2022/05/26 03:26:24;;;;;;;21.05;8.60;;;;;;;;;;5005782;28;20022;-77
2022/05/26 03:28:49;;;;;;;25.00;8.27;;;;;;;;;;5002168;28;20022;-75
2022/05/26 03:31:15;;;;;;;21.48;8.45;;;;;;;;;;5018297;28;20024;-76
2022/05/26 03:41:56;;;;;;;20.52;8.25;;;;;;;;;;4996576;28;20550;-75
2022/05/26 03:44:24;;;;;;;28.65;8.50;;;;;;;;;;4996694;28;20082;-76
2022/05/26 03:46:50;;;;;;;18.00;7.88;;;;;;;;;;4996543;28;20372;-76
2022/05/26 03:49:16;;;;;;;22.77;9.48;;;;;;;;;;4997497;28;20037;-78
2022/05/26 03:51:42;;;;;;;18.35;7.65;;;;;;;;;;4998544;28;20026;-76
2022/05/26 03:54:08;;;;;;;22.70;8.45;;;;;;;;;;4999754;28;20417;-77
2022/05/26 03:56:34;;;;;;;22.55;8.27;;;;;;;;;;5013260;28;20045;-77
2022/05/26 03:59:00;;;;;;;21.15;8.77;;;;;;;;;;5018440;28;20041;-73
2022/05/26 04:01:28;;;;;;;20.95;8.93;;;;;;;;;;5021336;28;20015;-73
2022/05/26 04:03:55;;;;;;;21.17;7.30;;;;;;;;;;5020807;28;20019;-73
2022/05/26 04:06:21;;;;;;;19.88;8.18;;;;;;;;;;5020732;28;20034;-75
2022/05/26 04:08:47;;;;;;;24.10;7.82;;;;;;;;;;5016086;28;20375;-77
2022/05/26 04:11:13;;;;;;;29.25;8.20;;;;;;;;;;4980395;28;20466;-77
2022/05/26 04:13:39;;;;;;;21.88;8.45;;;;;;;;;;4997875;28;20037;-77
2022/05/26 04:16:05;;;;;;;28.15;8.65;;;;;;;;;;4998408;28;20033;-77
2022/05/26 04:18:31;;;;;;;18.67;7.15;;;;;;;;;;5000475;28;20030;-77
2022/05/26 04:21:07;;;;;;;20.13;7.68;;;;;;;;;;4999227;28;20026;-77
2022/05/26 04:23:33;;;;;;;25.15;7.43;;;;;;;;;;5000152;28;20026;-77
2022/05/26 04:25:59;;;;;;;24.20;8.07;;;;;;;;;;4996739;28;20030;-76
2022/05/26 04:28:25;;;;;;;29.92;8.27;;;;;;;;;;4997518;28;20396;-77
2022/05/26 04:30:51;;;;;;;20.25;8.07;;;;;;;;;;5006000;28;20031;-74
2022/05/26 04:33:17;;;;;;;37.78;8.73;;;;;;;;;;5013084;28;20065;-75
2022/05/26 04:35:43;;;;;;;21.38;8.10;;;;;;;;;;4996132;28;20033;-77
2022/05/26 04:38:09;;;;;;;18.65;7.45;;;;;;;;;;4997909;28;20032;-78
2022/05/26 04:40:35;;;;;;;31.08;8.48;;;;;;;;;;5002576;28;20023;-77
2022/05/26 04:43:01;;;;;;;28.70;8.40;;;;;;;;;;4987190;28;20033;-77
2022/05/26 04:45:27;;;;;;;30.38;8.63;;;;;;;;;;5002199;28;20042;-77
2022/05/26 04:47:53;;;;;;;23.48;7.50;;;;;;;;;;5011245;28;20031;-77
2022/05/26 04:50:21;;;;;;;25.95;7.32;;;;;;;;;;4979930;28;20038;-76
2022/05/26 04:52:47;;;;;;;23.00;7.10;;;;;;;;;;4979375;28;20084;-76
2022/05/26 04:55:13;;;;;;;25.00;8.00;;;;;;;;;;4998839;28;20509;-74
2022/05/26 04:57:39;;;;;;;20.90;6.60;;;;;;;;;;4996030;28;20030;-77
2022/05/26 05:00:07;;;;;;;20.17;6.53;;;;;;;;;;4996726;28;20408;-75
2022/05/26 05:02:33;;;;;;;23.10;6.55;;;;;;;;;;4999041;28;20109;-75
2022/05/26 05:05:00;;;;;;;21.13;6.00;;;;;;;;;;5012457;28;20050;-77
2022/05/26 05:07:26;;;;;;;24.00;6.55;;;;;;;;;;4984988;28;20059;-78
2022/05/26 05:09:52;;;;;;;22.15;6.72;;;;;;;;;;5005958;28;20037;-77
2022/05/26 05:12:20;;;;;;;32.40;6.97;;;;;;;;;;5001755;28;20373;-76
2022/05/26 05:14:47;;;;;;;34.90;7.07;;;;;;;;;;4996290;28;20022;-75
2022/05/26 05:17:14;;;;;;;31.83;6.22;;;;;;;;;;4998447;28;20084;-74
2022/05/26 05:19:40;;;;;;;26.30;7.13;;;;;;;;;;5002310;28;20064;-75
2022/05/26 05:22:06;;;;;;;25.10;6.30;;;;;;;;;;4999460;28;20030;-76
2022/05/26 05:24:38;;;;;;;31.77;6.63;;;;;;;;;;4979997;28;20030;-76
2022/05/26 05:27:10;;;;;;;25.02;6.00;;;;;;;;;;4995379;28;20357;-76
2022/05/26 05:29:38;;;;;;;18.42;5.63;;;;;;;;;;4995663;28;20069;-76
2022/05/26 05:32:24;;;;;;;26.60;5.38;;;;;;;;;;4995996;28;20058;-74
2022/05/26 05:34:53;;;;;;;21.10;5.25;;;;;;;;;;5000623;28;20062;-76
2022/05/26 05:37:19;;;;;;;28.35;5.30;;;;;;;;;;5000424;28;20031;-77
2022/05/26 05:39:45;;;;;;;23.08;5.93;;;;;;;;;;4984071;28;20586;-78
2022/05/26 05:42:11;;;;;;;21.27;5.30;;;;;;;;;;5000356;28;20035;-77
2022/05/26 05:44:37;;;;;;;26.55;5.78;;;;;;;;;;4999856;28;20096;-75
2022/05/26 05:47:03;;;;;;;26.95;5.57;;;;;;;;;;4998501;28;20105;-77
2022/05/26 05:49:31;;;;;;;22.08;5.63;;;;;;;;;;4998810;28;20065;-77
2022/05/26 05:52:03;;;;;;;22.25;4.82;;;;;;;;;;4999035;28;20026;-77
2022/05/26 05:54:30;;;;;;;26.40;5.72;;;;;;;;;;4999549;28;20190;-76
2022/05/26 05:56:56;;;;;;;24.45;6.00;;;;;;;;;;4999075;28;20040;-78
2022/05/26 05:59:22;;;;;;;26.77;5.25;;;;;;;;;;4997694;28;20379;-77
2022/05/26 06:01:48;;;;;;;31.05;5.55;;;;;;;;;;4985978;28;20507;-80
2022/05/26 06:04:14;;;;;;;26.17;4.93;;;;;;;;;;4984418;28;20522;-81
2022/05/26 06:06:41;;;;;;;35.85;5.50;;;;;;;;;;5004744;28;20030;-77
2022/05/26 06:09:08;;;;;;;23.25;4.35;;;;;;;;;;4982768;28;20472;-79
2022/05/26 06:11:34;;;;;;;26.95;5.00;;;;;;;;;;4995900;28;20332;-77
2022/05/26 06:14:04;;;;;;;25.42;4.05;;;;;;;;;;4996291;28;20042;-78
2022/05/26 06:16:30;;;;;;;20.80;4.32;;;;;;;;;;4995877;28;20479;-80
2022/05/26 06:18:56;;;;;;;26.02;4.43;;;;;;;;;;4996636;28;20116;-78
2022/05/26 06:21:22;;;;;;;20.50;4.55;;;;;;;;;;4999539;28;20037;-76
2022/05/26 06:23:48;;;;;;;23.30;4.95;;;;;;;;;;5010754;28;20030;-76
2022/05/26 06:26:14;;;;;;;25.63;3.80;;;;;;;;;;5011000;28;20038;-77
2022/05/26 06:31:25;;;;;;;;;;;;;;;;;;5004692;28;20065;-77
2022/05/26 06:39:20;;;;;;;26.90;3.65;;;;;;;;;;4997620;28;20559;-77
2022/05/26 06:44:31;;;;;;;23.13;4.10;;;;;;;;;;4997220;28;20065;-78
2022/05/26 06:46:57;;;;;;;19.73;3.85;;;;;;;;;;4996609;28;20030;-78
2022/05/26 06:49:23;;;;;;;26.25;4.43;;;;;;;;;;4982083;28;20026;-79
2022/05/26 06:51:49;;;;;;;20.27;3.45;;;;;;;;;;4998704;28;20030;-78
2022/05/26 06:54:15;;;;;;;22.25;3.65;;;;;;;;;;5000049;28;20032;-78
2022/05/26 06:56:41;;;;;;;21.92;3.42;;;;;;;;;;4980855;28;20038;-76
2022/05/26 06:59:07;;;;;;;20.92;3.75;;;;;;;;;;5006974;28;20030;-77
2022/05/26 07:01:33;;;;;;;26.60;3.58;;;;;;;;;;4998227;28;20081;-76
2022/05/26 07:03:59;;;;;;;20.08;2.97;;;;;;;;;;5001388;28;20029;-77
2022/05/26 07:06:27;;;;;;;14.60;2.67;;;;;;;;;;5002742;28;20026;-77
2022/05/26 07:08:53;;;;;;;16.17;2.63;;;;;;;;;;4986146;28;20045;-77
2022/05/26 07:11:20;;;;;;;23.05;2.70;;;;;;;;;;5009730;28;20031;-78
2022/05/26 07:13:46;;;;;;;17.45;3.15;;;;;;;;;;5004348;28;20523;-77
2022/05/26 07:16:12;;;;;;;14.18;2.35;;;;;;;;;;5001239;28;20030;-77
2022/05/26 07:18:39;;;;;;;14.20;2.50;;;;;;;;;;4999065;28;20615;-78
2022/05/26 07:21:06;;;;;;;22.15;2.53;;;;;;;;;;4998730;28;20018;-78
2022/05/26 07:23:32;;;;;;;13.85;2.22;;;;;;;;;;4998512;28;20045;-77
2022/05/26 07:25:58;;;;;;;15.75;2.65;;;;;;;;;;4996767;28;20542;-78
2022/05/26 07:28:24;;;;;;;21.13;2.30;;;;;;;;;;4978630;28;20026;-78
2022/05/26 07:30:52;;;;;;;15.50;2.00;;;;;;;;;;4979729;28;20026;-77
2022/05/26 07:33:18;;;;;;;7.47;1.48;;;;;;;;;;4999381;28;20034;-78
2022/05/26 07:35:44;;;;;;;18.02;2.53;;;;;;;;;;4981128;28;20039;-77
2022/05/26 07:41:16;;;;;;;16.60;2.35;;;;;;;;;;5012886;28;20036;-77
2022/05/26 07:43:42;;;;;;;11.68;2.00;;;;;;;;;;5009173;28;20010;-76
2022/05/26 07:46:10;;;;;;;14.07;2.17;;;;;;;;;;5003514;28;20032;-78
2022/05/26 07:48:36;;;;;;;15.32;2.22;;;;;;;;;;4999280;28;20014;-79
2022/05/26 07:51:02;;;;;;;9.60;1.80;;;;;;;;;;4998943;28;20435;-79
2022/05/26 07:53:28;;;;;;;9.68;2.03;;;;;;;;;;4998116;28;20037;-78
2022/05/26 07:55:54;;;;;;;17.17;2.03;;;;;;;;;;4999300;28;20030;-78
2022/05/26 07:58:20;;;;;;;7.72;1.73;;;;;;;;;;5000552;28;20376;-79
2022/05/26 08:00:47;;;;;;;9.95;2.45;;;;;;;;;;5000044;28;20030;-78
2022/05/26 08:03:13;;;;;;;11.43;1.83;;;;;;;;;;4984482;28;20022;-81
2022/05/26 08:05:39;;;;;;;16.95;2.35;;;;;;;;;;4983067;28;20026;-77
2022/05/26 08:08:06;;;;;;;11.98;2.05;;;;;;;;;;5003135;28;20034;-77
2022/05/26 08:10:32;;;;;;;14.32;2.00;;;;;;;;;;5002072;28;20038;-77
2022/05/26 08:12:58;;;;;;;16.02;2.28;;;;;;;;;;5003556;28;20049;-76
2022/05/26 08:15:24;;;;;;;10.20;1.75;;;;;;;;;;5000624;28;20022;-76
2022/05/26 08:17:50;;;;;;;13.25;1.98;;;;;;;;;;5002775;28;20026;-77
2022/05/26 08:20:16;;;;;;;14.35;1.77;;;;;;;;;;5007418;28;20068;-76
2022/05/26 08:22:42;;;;;;;11.82;1.92;;;;;;;;;;5020904;23;20077;-76
2022/05/26 08:25:09;;;;;;;12.90;2.28;;;;;;;;;;4981366;28;20042;-75
2022/05/26 08:27:35;;;;;;;12.68;1.88;;;;;;;;;;4983266;28;20077;-77
2022/05/26 08:30:01;;;;;;;15.48;2.05;;;;;;;;;;4985667;28;20030;-75
2022/05/26 08:32:27;;;;;;;13.90;2.30;;;;;;;;;;4986449;28;20080;-75
2022/05/26 08:35:00;;;;;;;12.07;2.00;;;;;;;;;;4985680;28;20035;-76
2022/05/26 08:37:25;;;;;;;18.17;2.20;;;;;;;;;;4999282;28;20026;-75
2022/05/26 08:39:52;;;;;;;11.07;2.25;;;;;;;;;;4997073;28;20361;-76
2022/05/26 08:42:24;;;;;;;14.45;2.13;;;;;;;;;;4979636;28;20033;-76
2022/05/26 08:44:50;;;;;;;18.42;2.42;;;;;;;;;;4996549;28;20027;-76
2022/05/26 08:47:18;;;;;;;9.43;1.70;;;;;;;;;;4997231;28;20074;-76
2022/05/26 08:50:02;;;;;;;15.85;1.75;;;;;;;;;;4993471;28;20018;-75
2022/05/26 08:52:36;;;;;;;13.57;2.00;;;;;;;;;;4995143;28;20181;-75
2022/05/26 08:55:07;;;;;;;12.80;2.23;;;;;;;;;;4995765;28;20472;-75
2022/05/26 08:57:39;;;;;;;15.32;1.98;;;;;;;;;;4977809;28;20272;-74
2022/05/26 09:00:05;;;;;;;10.73;2.08;;;;;;;;;;4980512;28;20037;-75
2022/05/26 09:02:35;;;;;;;14.25;2.40;;;;;;;;;;4998939;28;20030;-77
2022/05/26 09:05:03;;;;;;;13.77;1.67;;;;;;;;;;4998236;28;20069;-74
2022/05/26 09:13:06;;;;;;;11.32;1.50;;;;;;;;;;4995618;28;20052;-74
2022/05/26 09:15:34;;;;;;;10.02;1.75;;;;;;;;;;4995119;28;20153;-74
2022/05/26 09:18:09;;;;;;;7.28;1.60;;;;;;;;;;4997091;28;20073;-73
2022/05/26 09:20:39;;;;;;;8.77;1.55;;;;;;;;;;4998220;28;20019;-75
2022/05/26 09:23:09;;;;;;;7.90;1.52;;;;;;;;;;5001261;28;20057;-75
2022/05/26 09:25:43;;;;;;;9.45;1.40;;;;;;;;;;4982048;28;20037;-73
2022/05/26 09:28:12;;;;;;;11.02;1.45;;;;;;;;;;5004014;28;20035;-73
2022/05/26 09:30:38;;;;;;;8.02;1.48;;;;;;;;;;5005743;28;20033;-74
2022/05/26 09:33:18;;;;;;;14.77;1.50;;;;;;;;;;5005062;28;20053;-73
2022/05/26 09:35:45;;;;;;;15.05;1.95;;;;;;;;;;4982185;28;20026;-75
2022/05/26 09:38:15;;;;;;;11.90;2.13;;;;;;;;;;4975435;28;20150;-75
2022/05/26 09:40:45;;;;;;;10.18;2.03;;;;;;;;;;4975167;28;20027;-75
2022/05/26 09:43:17;;;;;;;8.95;1.80;;;;;;;;;;4975049;28;20027;-75
2022/05/26 09:45:52;;;;;;;9.80;1.65;;;;;;;;;;4974738;28;20395;-74
2022/05/26 09:48:24;;;;;;;16.67;2.25;;;;;;;;;;4974991;28;20059;-75
2022/05/26 09:50:52;;;;;;;14.95;2.85;;;;;;;;;;4957648;28;20035;-75
2022/05/26 09:53:33;;;;;;;12.10;1.55;;;;;;;;;;4975442;28;20035;-75
2022/05/26 09:55:59;;;;;;;13.70;1.83;;;;;;;;;;4978558;28;20031;-75
2022/05/26 09:58:37;;;;;;;9.32;1.90;;;;;;;;;;4994923;28;20037;-74
2022/05/26 10:01:15;;;;;;;14.48;1.95;;;;;;;;;;5013354;28;20052;-74
2022/05/26 10:03:59;;;;;;;9.65;1.40;;;;;;;;;;5013675;28;20056;-73
2022/05/26 10:06:39;;;;;;;14.57;1.83;;;;;;;;;;5012995;28;20395;-75
2022/05/26 10:09:19;;;;;;;11.15;1.85;;;;;;;;;;5013997;28;20030;-75
2022/05/26 10:11:56;;;;;;;8.38;1.63;;;;;;;;;;4995674;28;20581;-76
2022/05/26 10:14:34;;;;;;;8.65;1.50;;;;;;;;;;5014520;28;20029;-77
2022/05/26 10:17:10;;;;;;;10.82;2.13;;;;;;;;;;5013679;28;20036;-75
2022/05/26 10:19:51;;;;;;;10.98;2.50;;;;;;;;;;5018058;28;20018;-75
2022/05/26 10:22:18;;;;;;;13.88;1.65;;;;;;;;;;5019942;28;20029;-74
2022/05/26 10:24:50;;;;;;;12.70;1.98;;;;;;;;;;5013683;28;20029;-74
2022/05/26 10:27:36;;;;;;;11.35;1.92;;;;;;;;;;5012918;28;20080;-75
2022/05/26 10:30:05;;;;;;;8.02;1.30;;;;;;;;;;4996300;28;20135;-73
2022/05/26 10:32:46;;;;;;;7.47;1.98;;;;;;;;;;5013103;28;20052;-74
2022/05/26 10:35:22;;;;;;;9.93;1.60;;;;;;;;;;4996056;28;20057;-75
2022/05/26 10:37:54;;;;;;;8.48;1.45;;;;;;;;;;4995609;28;20029;-76
2022/05/26 10:40:20;;;;;;;9.63;1.60;;;;;;;;;;5013585;28;20522;-75
2022/05/26 10:42:50;;;;;;;8.82;2.28;;;;;;;;;;5013337;28;20018;-75
2022/05/26 10:45:19;;;;;;;7.75;1.67;;;;;;;;;;5014301;28;20387;-76
2022/05/26 10:47:57;;;;;;;9.25;1.83;;;;;;;;;;5013953;28;20090;-74
2022/05/26 10:50:41;;;;;;;7.82;1.80;;;;;;;;;;5013588;28;20030;-75
2022/05/26 10:53:23;;;;;;;7.20;1.58;;;;;;;;;;5014333;28;20034;-75
2022/05/26 10:55:49;;;;;;;8.75;1.45;;;;;;;;;;5016510;28;20053;-75
2022/05/26 10:58:19;;;;;;;6.72;1.13;;;;;;;;;;5017432;28;20041;-76
2022/05/26 11:00:47;;;;;;;11.25;1.42;;;;;;;;;;5014446;28;20053;-75
2022/05/26 11:03:14;;;;;;;12.70;1.73;;;;;;;;;;5013947;28;20044;-75
2022/05/26 11:05:48;;;;;;;11.38;2.25;;;;;;;;;;5014053;28;20026;-75
2022/05/26 11:08:31;;;;;;;9.27;1.55;;;;;;;;;;5014700;28;20026;-75
2022/05/26 11:11:15;;;;;;;11.60;3.13;;;;;;;;;;5013710;28;20100;-75
2022/05/26 11:13:44;;;;;;;16.27;4.20;;;;;;;;;;5015161;28;20604;-76
2022/05/26 11:19:33;;;;;;;6.72;1.65;;;;;;;;;;5013609;28;20395;-75
2022/05/26 11:22:00;;;;;;;6.70;1.98;;;;;;;;;;5013070;28;20033;-75
2022/05/26 11:24:26;;;;;;;8.55;1.70;;;;;;;;;;5012789;28;20045;-75
2022/05/26 11:27:05;;;;;;;5.68;1.50;;;;;;;;;;4994988;28;20030;-74
2022/05/26 11:29:44;;;;;;;7.85;1.98;;;;;;;;;;5013050;28;20084;-74
2022/05/26 11:38:01;;;;;;;13.40;3.15;;;;;;;;;;5016535;28;20545;-74
2022/05/26 11:40:26;;;;;;;;;;;;;;;;;;5017043;28;20588;-74
2022/05/26 11:42:54;;;;;;;11.73;2.72;;;;;;;;;;5016730;28;19905;-73
2022/05/26 11:45:23;;;;;;;16.45;3.90;;;;;;;;;;5018013;28;20462;-78
2022/05/26 11:47:55;;;;;;;6.70;1.45;;;;;;;;;;5018400;28;20026;-75
2022/05/26 11:50:27;;;;;;;10.00;1.75;;;;;;;;;;5017750;28;20549;-76
2022/05/26 11:52:53;;;;;;;11.73;1.50;;;;;;;;;;5001333;28;20026;-76
2022/05/26 11:55:34;;;;;;;10.35;1.80;;;;;;;;;;5016424;28;20030;-74
2022/05/26 11:58:16;;;;;;;11.73;1.92;;;;;;;;;;5018009;28;20018;-76
2022/05/26 12:00:44;;;;;;;11.30;1.75;;;;;;;;;;4998975;28;20076;-74
2022/05/26 12:03:22;;;;;;;7.75;1.92;;;;;;;;;;5017735;28;20024;-75
2022/05/26 12:05:55;;;;;;;10.90;1.70;;;;;;;;;;5018172;28;20530;-75
2022/05/26 12:08:35;;;;;;;13.73;1.45;;;;;;;;;;5016867;28;20029;-75
2022/05/26 12:11:02;;;;;;;8.63;1.52;;;;;;;;;;5023567;28;20037;-74
2022/05/26 12:13:29;;;;;;;8.63;2.55;;;;;;;;;;5032113;28;20054;-75
2022/05/26 12:16:14;;;;;;;9.70;1.65;;;;;;;;;;5018356;28;20029;-74
2022/05/26 12:18:49;;;;;;;8.55;1.50;;;;;;;;;;5035653;28;20060;-73
2022/05/26 12:21:17;;;;;;;9.38;1.95;;;;;;;;;;5036234;28;20022;-74
2022/05/26 12:23:43;;;;;;;9.77;1.48;;;;;;;;;;5037678;28;20053;-75
2022/05/26 12:26:24;;;;;;;12.38;1.85;;;;;;;;;;5021151;28;20053;-75
2022/05/26 12:28:50;;;;;;;9.50;1.75;;;;;;;;;;5016447;28;20030;-75
2022/05/26 12:31:16;;;;;;;8.43;2.03;;;;;;;;;;5015615;28;20459;-74
2022/05/26 12:33:50;;;;;;;8.60;1.60;;;;;;;;;;5015807;28;20022;-73
2022/05/26 12:36:21;;;;;;;13.63;1.77;;;;;;;;;;5015323;28;20033;-75
2022/05/26 12:39:14;;;;;;;13.30;2.65;;;;;;;;;;5016249;28;20025;-75
2022/05/26 12:41:59;;;;;;;15.43;2.03;;;;;;;;;;5017086;28;20025;-74
2022/05/26 12:44:30;;;;;;;10.73;1.60;;;;;;;;;;5004161;28;20026;-77
2022/05/26 12:47:16;;;;;;;11.02;2.17;;;;;;;;;;5027662;28;20460;-75
2022/05/26 12:50:20;;;;;;;8.27;1.67;;;;;;;;;;5003922;28;20060;-76
2022/05/26 12:53:00;;;;;;;12.02;1.80;;;;;;;;;;4927919;29;20377;-78
2022/05/26 12:55:38;;;;;;;11.27;2.17;;;;;;;;;;4931872;29;20064;-76
2022/05/26 12:58:24;;;;;;;13.23;1.67;;;;;;;;;;4994909;28;20049;-74
2022/05/26 13:00:59;;;;;;;11.10;1.80;;;;;;;;;;5026119;28;20026;-74
2022/05/26 13:03:31;;;;;;;8.57;1.70;;;;;;;;;;5022123;28;20075;-73
2022/05/26 13:05:59;;;;;;;15.57;2.40;;;;;;;;;;5014751;28;20034;-74
2022/05/26 13:08:28;;;;;;;12.93;1.90;;;;;;;;;;5012301;28;20026;-75
2022/05/26 13:10:55;;;;;;;12.93;1.73;;;;;;;;;;5006183;28;20026;-75
2022/05/26 13:13:40;;;;;;;11.15;1.88;;;;;;;;;;5007318;28;20029;-75
2022/05/26 13:16:06;;;;;;;;;;;;;;;;;;4996074;28;20081;-74
2022/05/26 13:18:37;;;;;;;14.10;1.80;;;;;;;;;;4996609;28;19906;-73
2022/05/26 13:21:14;;;;;;;10.20;1.50;;;;;;;;;;4996690;28;20018;-75
2022/05/26 13:23:40;;;;;;;12.85;1.58;;;;;;;;;;4995864;28;20491;-74
2022/05/26 13:26:06;;;;;;;9.10;1.42;;;;;;;;;;4996511;28;20105;-74
2022/05/26 13:28:33;;;;;;;18.23;2.40;;;;;;;;;;4997133;28;20058;-74
2022/05/26 13:33:44;;;;;;;12.43;1.70;;;;;;;;;;4995960;28;20053;-74
2022/05/26 13:36:25;;;;;;;11.57;2.00;;;;;;;;;;4995802;28;20587;-73
2022/05/26 13:38:51;;;;;;;14.05;2.72;;;;;;;;;;4997054;28;20387;-74
2022/05/26 13:41:22;;;;;;;9.73;1.75;;;;;;;;;;4996472;28;20027;-75
2022/05/26 13:43:49;;;;;;;11.05;2.35;;;;;;;;;;4996722;28;20113;-73
2022/05/26 13:46:26;;;;;;;12.55;1.88;;;;;;;;;;4996401;28;20477;-74
2022/05/26 13:48:54;;;;;;;14.07;2.15;;;;;;;;;;5000701;28;20439;-75
2022/05/26 13:51:22;;;;;;;10.88;1.85;;;;;;;;;;4983276;28;20033;-74
2022/05/26 13:53:49;;;;;;;11.52;1.83;;;;;;;;;;4999169;28;20066;-74
2022/05/26 13:56:21;;;;;;;9.25;1.60;;;;;;;;;;4998096;28;20038;-75
2022/05/26 13:58:48;;;;;;;11.15;2.17;;;;;;;;;;4998636;28;20033;-74
2022/05/26 14:01:14;;;;;;;17.08;2.17;;;;;;;;;;4998699;28;20031;-73
2022/05/26 14:03:41;;;;;;;11.98;1.90;;;;;;;;;;4998026;28;20077;-74
2022/05/26 14:06:26;;;;;;;9.88;1.33;;;;;;;;;;4999194;28;20045;-74
2022/05/26 14:08:52;;;;;;;;;;;;;;;;;;5001222;28;20033;-75
2022/05/26 14:11:29;;;;;;;10.32;1.95;;;;;;;;;;4995124;28;19906;-74
2022/05/26 14:13:56;;;;;;;9.90;1.95;;;;;;;;;;4994978;28;20093;-75
2022/05/26 14:16:23;;;;;;;12.93;1.90;;;;;;;;;;4995984;28;20026;-77
2022/05/26 14:18:51;;;;;;;11.93;1.83;;;;;;;;;;4995652;28;20542;-76
2022/05/26 14:21:21;;;;;;;18.15;2.22;;;;;;;;;;4995278;28;20444;-75
2022/05/26 14:23:51;;;;;;;11.23;2.25;;;;;;;;;;5027144;23;20061;-73
2022/05/26 14:26:40;;;;;;;13.40;2.30;;;;;;;;;;5014191;28;20034;-74
2022/05/26 14:29:29;;;;;;;11.02;2.20;;;;;;;;;;5005144;28;20406;-72
2022/05/26 14:32:01;;;;;;;11.95;2.58;;;;;;;;;;5013899;28;20077;-73
2022/05/26 14:34:31;;;;;;;10.70;2.05;;;;;;;;;;5016102;28;20025;-74
2022/05/26 14:36:58;;;;;;;7.55;1.83;;;;;;;;;;5013451;28;20576;-72
2022/05/26 14:39:24;;;;;;;13.82;2.25;;;;;;;;;;5013373;28;20221;-72
2022/05/26 14:41:51;;;;;;;12.80;2.58;;;;;;;;;;5013551;28;20375;-73
2022/05/26 14:44:17;;;;;;;14.32;2.65;;;;;;;;;;4995628;28;20022;-73
2022/05/26 14:46:46;;;;;;;12.77;2.50;;;;;;;;;;5013078;28;20371;-74
2022/05/26 14:49:12;;;;;;;12.68;2.42;;;;;;;;;;5013394;28;20050;-72
2022/05/26 14:51:38;;;;;;;18.75;2.35;;;;;;;;;;5013408;28;20043;-71
2022/05/26 14:56:50;;;;;;;9.95;1.67;;;;;;;;;;5013597;28;20041;-73
2022/05/26 14:59:17;;;;;;;13.60;2.38;;;;;;;;;;5013828;28;20026;-74
2022/05/26 15:01:43;;;;;;;14.07;2.40;;;;;;;;;;5013661;28;20037;-74
2022/05/26 15:04:09;;;;;;;13.32;2.10;;;;;;;;;;5015341;28;20042;-73
2022/05/26 15:06:38;;;;;;;14.38;2.63;;;;;;;;;;5018127;28;20037;-73
2022/05/26 15:09:06;;;;;;;17.83;3.38;;;;;;;;;;5023631;28;20018;-75
2022/05/26 15:11:32;;;;;;;20.05;2.80;;;;;;;;;;5014014;28;20048;-71
2022/05/26 15:13:58;;;;;;;16.33;2.42;;;;;;;;;;5013548;28;20475;-73
2022/05/26 15:16:24;;;;;;;11.15;2.50;;;;;;;;;;5013798;28;20479;-74
2022/05/26 15:18:53;;;;;;;14.75;2.58;;;;;;;;;;5017498;28;20023;-72
2022/05/26 15:21:19;;;;;;;17.95;3.20;;;;;;;;;;5013570;28;20018;-73
2022/05/26 15:23:45;;;;;;;13.40;2.60;;;;;;;;;;5014604;28;20030;-72
2022/05/26 15:26:11;;;;;;;23.48;3.42;;;;;;;;;;5013489;28;20025;-71
2022/05/26 15:28:49;;;;;;;21.30;2.60;;;;;;;;;;5021704;28;20037;-72
2022/05/26 15:31:15;;;;;;;15.32;2.42;;;;;;;;;;5017106;28;20061;-72
2022/05/26 15:33:41;;;;;;;14.10;2.40;;;;;;;;;;5017983;28;20075;-72